F/V Jeremi Simon — FHAF — position and weather

sailwx.info

Track history (hours):
 
Tides and Currents Weather Stations Pressure Air Temp Water Temp Dewpoint Dewpoint Depression Visibility Wind Speed Wind Dir Waves Ship Positions

F/V Jeremi Simon

Last reported at 2015-May-03 23:05 UTC. Time now 2015-May-06 05:25 UTC.
Position N 46°11' W 001°35'.

Length 20 m.

Type: Other ship. MMSI: 227415000.

Date/timePositionNaut miles runAvg speedWind from/ knotsBaromVisibWave heightAir tempDewpointWater temp
2015-May-03 23:05N 46°11' W 001°35'5 8.8
2015-May-03 22:34N 46°15' W 001°40'9 8.8
2015-May-03 21:34N 46°22' W 001°47'9 8.7
2015-May-03 20:34N 46°29' W 001°53'9 8.9
2015-May-03 19:34N 46°38' W 001°56'  
2015-Apr-28 23:19N 46°42' W 001°56'0 0.0
2015-Apr-28 22:33N 46°42' W 001°56'4 4.3
2015-Apr-28 21:33N 46°37' W 001°57'9 9.2
2015-Apr-28 20:33N 46°28' W 001°55'9 9.3
2015-Apr-28 19:33N 46°19' W 001°54'9 8.8
2015-Apr-28 18:30N 46°10' W 001°52'  
2015-Apr-25 06:17N 46°45' W 002°18'710.1
2015-Apr-25 05:33N 46°43' W 002°08'8 7.9
2015-Apr-25 04:33N 46°42' W 001°56'  
Track history (hours):
 
Tides and Currents Weather Stations Pressure Air Temp Water Temp Dewpoint Dewpoint Depression Visibility Wind Speed Wind Dir Waves Ship Positions

F/V Jeremi Simon

Last reported at 2015-May-03 23:05 UTC. Time now 2015-May-06 05:25 UTC.
Position N 46°11' W 001°35'.

Length 20 m.

Type: Other ship. MMSI: 227415000.

Date/timePositionNaut miles runAvg speedWind from/ knotsBaromVisibWave heightAir tempDewpointWater temp
2015-May-03 23:05N 46°11' W 001°35'5 8.8
2015-May-03 22:34N 46°15' W 001°40'9 8.8
2015-May-03 21:34N 46°22' W 001°47'9 8.7
2015-May-03 20:34N 46°29' W 001°53'9 8.9
2015-May-03 19:34N 46°38' W 001°56'  
2015-Apr-28 23:19N 46°42' W 001°56'0 0.0
2015-Apr-28 22:33N 46°42' W 001°56'4 4.3
2015-Apr-28 21:33N 46°37' W 001°57'9 9.2
2015-Apr-28 20:33N 46°28' W 001°55'9 9.3
2015-Apr-28 19:33N 46°19' W 001°54'9 8.8
2015-Apr-28 18:30N 46°10' W 001°52'  
2015-Apr-25 06:17N 46°45' W 002°18'710.1
2015-Apr-25 05:33N 46°43' W 002°08'8 7.9
2015-Apr-25 04:33N 46°42' W 001°56'  

Dump ship's entire track history